createdAt,value
2022-10-12T00:02:03.560Z,101046.25
2022-10-12T00:04:30.348Z,101038.53
2022-10-12T00:06:57.078Z,101049.66
2022-10-12T00:09:23.726Z,101035.25
2022-10-12T00:11:50.395Z,101035.41
2022-10-12T00:14:17.114Z,101039.97
2022-10-12T00:16:43.831Z,101001.72
2022-10-12T00:19:13.334Z,101006.88
2022-10-12T00:21:40.579Z,101029.22
2022-10-12T00:24:07.539Z,101026.75
2022-10-12T00:26:34.199Z,101038.31
2022-10-12T00:29:02.362Z,101038.56
2022-10-12T00:31:30.156Z,101016.84
2022-10-12T00:34:00.922Z,101015.78
2022-10-12T00:36:31.793Z,101045.59
2022-10-12T00:38:58.902Z,101042.78
2022-10-12T00:41:29.464Z,101034.28
2022-10-12T00:43:58.473Z,101002.69
2022-10-12T00:46:25.226Z,101004.00
2022-10-12T00:49:20.752Z,101024.56
2022-10-12T00:51:52.427Z,101000.44
2022-10-12T00:54:32.337Z,100986.88
2022-10-12T00:57:01.617Z,100976.41
2022-10-12T00:59:39.962Z,100982.03
2022-10-12T01:02:06.903Z,101005.13
2022-10-12T01:04:33.875Z,100982.56
2022-10-12T01:07:01.164Z,100980.81
2022-10-12T01:09:29.209Z,100992.13
2022-10-12T01:11:58.189Z,100941.66
2022-10-12T01:14:26.026Z,100995.28
2022-10-12T01:17:07.066Z,100975.41
2022-10-12T01:19:57.342Z,100975.34
2022-10-12T01:22:24.088Z,100948.91
2022-10-12T01:24:52.850Z,100959.78
2022-10-12T01:27:35.095Z,100961.09
2022-10-12T01:30:18.771Z,100950.94
2022-10-12T01:33:04.258Z,100950.59
2022-10-12T01:35:33.813Z,100954.47
2022-10-12T01:38:00.500Z,100941.78
2022-10-12T01:40:41.780Z,100946.72
2022-10-12T01:43:08.986Z,100942.97
2022-10-12T01:45:36.027Z,100931.50
2022-10-12T01:48:04.381Z,100918.06
2022-10-12T01:50:51.273Z,100897.00
2022-10-12T01:53:48.916Z,100923.78
2022-10-12T01:56:27.454Z,100909.47
2022-10-12T01:59:14.586Z,100914.94
2022-10-12T02:01:52.261Z,100911.97
2022-10-12T02:04:22.215Z,100906.53
2022-10-12T02:07:00.278Z,100895.59
2022-10-12T02:09:29.937Z,100897.28
2022-10-12T02:12:04.742Z,100880.47
2022-10-12T02:14:38.763Z,100896.00
2022-10-12T02:17:11.025Z,100899.41
2022-10-12T02:19:43.971Z,100860.31
2022-10-12T02:22:12.000Z,100862.66
2022-10-12T02:24:41.541Z,100867.22
2022-10-12T02:27:10.981Z,100860.25
2022-10-12T02:29:40.814Z,100868.38
2022-10-12T02:32:19.601Z,100869.75
2022-10-12T02:35:10.341Z,100858.84
2022-10-12T02:37:51.977Z,100865.94
2022-10-12T02:40:29.012Z,100852.03
2022-10-12T02:43:11.191Z,100848.63
2022-10-12T02:45:43.856Z,100849.31
2022-10-12T02:48:16.355Z,100819.13
2022-10-12T02:50:44.754Z,100818.00
2022-10-12T02:53:12.757Z,100818.31
2022-10-12T02:55:48.616Z,100826.72
2022-10-12T02:58:15.478Z,100809.94
2022-10-12T03:00:42.182Z,100805.00
2022-10-12T03:03:09.032Z,100802.81
2022-10-12T03:05:35.740Z,100800.91
2022-10-12T03:08:02.344Z,100789.53
2022-10-12T03:10:29.015Z,100802.22
2022-10-12T03:12:55.718Z,100780.31
2022-10-12T03:15:22.453Z,100771.53
2022-10-12T03:17:49.176Z,100803.97
2022-10-12T03:20:15.822Z,100801.66
2022-10-12T03:22:42.486Z,100803.50
2022-10-12T03:25:09.296Z,100799.97
2022-10-12T03:27:36.055Z,100805.47
2022-10-12T03:30:02.983Z,100799.97
2022-10-12T03:32:29.609Z,100787.41
2022-10-12T03:34:56.985Z,100789.19
2022-10-12T03:37:23.630Z,100789.53
2022-10-12T03:39:50.257Z,100784.13
2022-10-12T03:42:16.898Z,100785.66
2022-10-12T03:44:43.534Z,100757.13
2022-10-12T03:47:10.270Z,100740.50
2022-10-12T03:49:36.920Z,100723.84
2022-10-12T03:52:03.967Z,100743.28
2022-10-12T03:54:30.947Z,100749.03
2022-10-12T03:56:57.634Z,100758.72
2022-10-12T03:59:24.383Z,100733.84
2022-10-12T04:01:51.530Z,100713.44
2022-10-12T04:04:18.352Z,100719.22
2022-10-12T04:06:45.231Z,100764.00
2022-10-12T04:09:12.050Z,100763.66
2022-10-12T04:11:38.617Z,100736.28
2022-10-12T04:14:05.399Z,100761.53
2022-10-12T04:16:32.138Z,100746.53
2022-10-12T04:18:58.727Z,100747.38
2022-10-12T04:21:25.913Z,100742.34
2022-10-12T04:23:52.629Z,100748.19
2022-10-12T04:26:19.350Z,100703.59
2022-10-12T04:28:46.083Z,100723.28
2022-10-12T04:31:12.823Z,100725.44
2022-10-12T04:33:39.451Z,100694.16
2022-10-12T04:36:06.417Z,100732.56
2022-10-12T04:38:33.070Z,100732.00
2022-10-12T04:40:59.725Z,100717.84
2022-10-12T04:43:26.365Z,100688.84
2022-10-12T04:45:57.594Z,100693.38
2022-10-12T04:48:25.315Z,100692.00
2022-10-12T04:50:52.546Z,100688.31
2022-10-12T04:53:19.744Z,100686.75
2022-10-12T04:55:46.563Z,100682.25
2022-10-12T04:58:13.683Z,100677.97
2022-10-12T05:00:40.360Z,100678.88
2022-10-12T05:03:07.075Z,100678.22
2022-10-12T05:05:34.657Z,100678.88
2022-10-12T05:08:01.289Z,100664.69
2022-10-12T05:10:28.212Z,100672.41
2022-10-12T05:12:55.098Z,100658.09
2022-10-12T05:15:21.775Z,100626.88
2022-10-12T05:17:48.497Z,100652.28
2022-10-12T05:20:15.171Z,100642.47
2022-10-12T05:22:41.919Z,100622.63
2022-10-12T05:25:09.260Z,100656.97
2022-10-12T05:27:36.006Z,100643.25
2022-10-12T05:30:04.427Z,100648.84
2022-10-12T05:32:31.349Z,100661.50
2022-10-12T05:34:58.434Z,100653.91
2022-10-12T05:37:25.194Z,100652.78
2022-10-12T05:39:52.142Z,100641.06
2022-10-12T05:42:19.031Z,100612.22
2022-10-12T05:44:45.869Z,100612.81
2022-10-12T05:47:12.613Z,100618.50
2022-10-12T05:49:39.253Z,100612.94
2022-10-12T05:52:06.042Z,100618.16
2022-10-12T05:54:32.825Z,100627.19
2022-10-12T05:56:59.586Z,100622.81
2022-10-12T05:59:26.180Z,100611.00
2022-10-12T06:01:53.014Z,100596.72
2022-10-12T06:04:19.985Z,100587.13
2022-10-12T06:06:46.764Z,100611.56
2022-10-12T06:09:13.565Z,100577.75
2022-10-12T06:11:40.638Z,100583.72
2022-10-12T06:14:07.482Z,100579.97
2022-10-12T06:16:34.135Z,100589.84
2022-10-12T06:19:00.831Z,100579.31
2022-10-12T06:21:34.963Z,100562.63
2022-10-12T06:24:02.157Z,100573.69
2022-10-12T06:26:29.096Z,100579.38
2022-10-12T06:28:55.973Z,100561.56
2022-10-12T06:31:22.860Z,100588.44
2022-10-12T06:33:51.181Z,100559.75
2022-10-12T06:36:18.216Z,100572.66
2022-10-12T06:38:44.950Z,100575.84
2022-10-12T06:41:11.972Z,100567.31
2022-10-12T06:43:38.597Z,100546.91
2022-10-12T06:46:05.542Z,100536.41
2022-10-12T06:48:32.159Z,100556.53
2022-10-12T06:50:58.912Z,100565.34
2022-10-12T06:53:28.865Z,100567.56
2022-10-12T06:55:55.637Z,100562.06
2022-10-12T06:58:22.397Z,100538.13
2022-10-12T07:00:49.146Z,100532.25
2022-10-12T07:03:17.733Z,100553.47
2022-10-12T07:05:44.397Z,100505.88
2022-10-12T07:08:11.083Z,100543.31
2022-10-12T07:10:37.770Z,100477.78
2022-10-12T07:13:04.430Z,100530.41
2022-10-12T07:15:31.097Z,100498.44
2022-10-12T07:17:57.785Z,100467.47
2022-10-12T07:20:24.545Z,100501.34
2022-10-12T07:22:53.063Z,100496.44
2022-10-12T07:25:20.044Z,100496.03
2022-10-12T07:27:49.006Z,100488.66
2022-10-12T07:30:15.706Z,100451.56
2022-10-12T07:32:44.570Z,100433.16
2022-10-12T07:35:11.318Z,100444.72
2022-10-12T07:37:38.278Z,100442.94
2022-10-12T07:40:05.900Z,100425.66
2022-10-12T07:42:32.622Z,100456.75
2022-10-12T07:44:59.339Z,100441.34
2022-10-12T07:47:26.042Z,100428.22
2022-10-12T07:49:52.690Z,100405.63
2022-10-12T07:52:19.420Z,100417.06
2022-10-12T07:54:46.270Z,100428.44
2022-10-12T07:57:12.923Z,100433.63
2022-10-12T07:59:39.683Z,100408.25
2022-10-12T08:02:06.930Z,100384.78
2022-10-12T08:04:33.751Z,100426.91
2022-10-12T08:07:00.487Z,100406.75
2022-10-12T08:09:27.226Z,100407.59
2022-10-12T08:11:53.993Z,100427.19
2022-10-12T08:14:20.825Z,100435.09
2022-10-12T08:16:47.668Z,100405.28
2022-10-12T08:19:15.223Z,100392.84
2022-10-12T08:21:42.902Z,100371.09
2022-10-12T08:24:13.259Z,100397.06
2022-10-12T08:26:40.296Z,100390.28
2022-10-12T08:29:08.508Z,100421.31
2022-10-12T08:31:35.409Z,100386.72
2022-10-12T08:34:02.317Z,100419.94
2022-10-12T08:36:28.996Z,100414.13
2022-10-12T08:38:55.985Z,100393.41
2022-10-12T08:41:34.875Z,100424.69
2022-10-12T08:44:07.706Z,100430.56
2022-10-12T08:46:34.667Z,100392.56
2022-10-12T08:49:28.675Z,100401.50
2022-10-12T08:51:57.891Z,100402.78
2022-10-12T08:54:28.951Z,100400.09
2022-10-12T08:56:57.142Z,100404.09
2022-10-12T08:59:26.267Z,100411.09
2022-10-12T09:02:18.571Z,100424.09
2022-10-12T09:04:58.886Z,100428.31
2022-10-12T09:07:52.056Z,100418.41
2022-10-12T09:10:44.240Z,100426.22
2022-10-12T09:13:56.033Z,100427.75
2022-10-12T09:16:29.275Z,100406.63
2022-10-12T09:18:58.038Z,100445.88
2022-10-12T09:21:27.755Z,100417.72
2022-10-12T09:23:57.223Z,100430.03
2022-10-12T09:26:44.888Z,100432.97
2022-10-12T09:29:23.810Z,100366.22
2022-10-12T09:31:50.441Z,100407.63
2022-10-12T09:34:19.330Z,100371.66
2022-10-12T09:36:46.639Z,100380.97
2022-10-12T09:39:17.140Z,100388.44
2022-10-12T09:41:45.836Z,100382.56
2022-10-12T09:44:20.562Z,100357.03
2022-10-12T09:46:55.402Z,100384.59
2022-10-12T09:49:22.287Z,100361.94
2022-10-12T09:51:59.788Z,100362.66
2022-10-12T09:54:28.198Z,100379.66
2022-10-12T09:56:55.748Z,100330.84
2022-10-12T09:59:32.185Z,100380.78
2022-10-12T10:02:09.807Z,100387.59
2022-10-12T10:04:37.779Z,100383.03
2022-10-12T10:07:31.328Z,100378.97
2022-10-12T10:10:13.517Z,100374.84
2022-10-12T10:12:59.137Z,100350.38
2022-10-12T10:15:28.674Z,100373.16
2022-10-12T10:17:59.878Z,100335.50
2022-10-12T10:20:28.601Z,100335.50
2022-10-12T10:22:55.603Z,100327.25
2022-10-12T10:25:24.385Z,100317.00
2022-10-12T10:28:10.628Z,100349.09
2022-10-12T10:30:40.744Z,100352.97
2022-10-12T10:33:17.197Z,100360.59
2022-10-12T10:36:13.223Z,100349.75
2022-10-12T10:39:07.381Z,100361.28
2022-10-12T10:41:42.939Z,100353.28
2022-10-12T10:44:25.283Z,100358.66
2022-10-12T10:46:53.547Z,100358.56
2022-10-12T10:49:47.060Z,100341.81
2022-10-12T10:52:42.728Z,100355.44
2022-10-12T10:55:26.903Z,100360.88
2022-10-12T10:57:59.642Z,100353.22
2022-10-12T11:00:45.121Z,100352.28
2022-10-12T11:05:54.758Z,100312.75
2022-10-12T11:08:25.915Z,100354.06
2022-10-12T11:11:12.792Z,100338.00
2022-10-12T11:13:44.855Z,100324.56
2022-10-12T11:16:37.655Z,100316.22
2022-10-12T11:19:37.449Z,100321.72
2022-10-12T11:22:10.869Z,100342.94
2022-10-12T11:24:59.939Z,100332.72
2022-10-12T11:27:41.543Z,100347.66
2022-10-12T11:30:17.536Z,100350.38
2022-10-12T11:33:09.304Z,100335.53
2022-10-12T11:35:38.605Z,100336.50
2022-10-12T11:38:16.710Z,100348.97
2022-10-12T11:41:13.786Z,100285.84
2022-10-12T11:44:01.342Z,100334.09
2022-10-12T11:46:35.850Z,100311.53
2022-10-12T11:49:17.221Z,100331.31
2022-10-12T11:51:48.428Z,100355.44
2022-10-12T11:54:27.854Z,100358.75
2022-10-12T11:56:58.755Z,100341.78
2022-10-12T11:59:28.441Z,100371.72
2022-10-12T12:02:01.414Z,100362.28
2022-10-12T12:04:48.252Z,100366.63
2022-10-12T12:07:42.297Z,100365.13
2022-10-12T12:10:37.382Z,100367.44
2022-10-12T12:13:19.616Z,100361.53
2022-10-12T12:15:52.359Z,100363.50
2022-10-12T12:18:24.118Z,100360.50
2022-10-12T12:21:08.337Z,100366.88
2022-10-12T12:23:43.651Z,100350.44
2022-10-12T12:26:15.701Z,100372.81
2022-10-12T12:28:49.651Z,100373.78
2022-10-12T12:31:22.718Z,100381.91
2022-10-12T12:34:02.690Z,100373.56
2022-10-12T12:36:45.004Z,100391.66
2022-10-12T12:39:32.926Z,100394.03
2022-10-12T12:42:05.000Z,100374.97
2022-10-12T12:44:34.896Z,100386.00
2022-10-12T12:47:01.483Z,100397.31
2022-10-12T12:49:39.597Z,100398.28
2022-10-12T12:52:37.036Z,100377.38
2022-10-12T12:55:40.490Z,100381.03
2022-10-12T12:58:22.390Z,100396.78
2022-10-12T13:01:24.784Z,100384.66
2022-10-12T13:04:30.376Z,100392.50
2022-10-12T13:07:15.974Z,100383.69
2022-10-12T13:10:26.165Z,100382.69
2022-10-12T13:13:12.889Z,100361.81
2022-10-12T13:15:51.984Z,100403.63
2022-10-12T13:18:47.657Z,100400.75
2022-10-12T13:21:22.729Z,100374.97
2022-10-12T13:23:55.281Z,100374.03
2022-10-12T13:26:27.870Z,100370.13
2022-10-12T13:28:55.851Z,100389.38
2022-10-12T13:31:34.880Z,100386.53
2022-10-12T13:34:25.554Z,100348.13
2022-10-12T13:37:09.825Z,100378.63
2022-10-12T13:39:43.357Z,100392.56
2022-10-12T13:42:16.130Z,100371.06
2022-10-12T13:44:44.603Z,100398.44
2022-10-12T13:47:27.748Z,100454.13
2022-10-12T13:49:55.651Z,100409.72
2022-10-12T13:52:32.926Z,100446.75
2022-10-12T13:55:00.937Z,100453.41
2022-10-12T13:57:39.856Z,100428.78
2022-10-12T14:00:16.200Z,100461.28
2022-10-12T14:02:53.754Z,100468.44
2022-10-12T14:05:24.286Z,100462.94
2022-10-12T14:07:53.692Z,100441.28
2022-10-12T14:10:36.454Z,100438.88
2022-10-12T14:13:05.164Z,100471.53
2022-10-12T14:15:38.607Z,100470.69
2022-10-12T14:18:25.592Z,100454.28
2022-10-12T14:21:25.540Z,100438.44
2022-10-12T14:23:57.561Z,100492.47
2022-10-12T14:26:24.266Z,100495.03
2022-10-12T14:28:51.939Z,100493.50
2022-10-12T14:31:18.923Z,100481.94
2022-10-12T14:33:46.079Z,100466.88
2022-10-12T14:36:15.599Z,100500.25
2022-10-12T14:38:43.886Z,100479.69
2022-10-12T14:41:28.862Z,100497.03
2022-10-12T14:44:16.297Z,100464.97
2022-10-12T14:46:57.207Z,100515.22
2022-10-12T14:49:27.101Z,100497.16
2022-10-12T14:51:55.493Z,100504.44
2022-10-12T14:54:23.688Z,100511.53
2022-10-12T14:56:50.562Z,100471.00
2022-10-12T14:59:17.645Z,100509.44
2022-10-12T15:01:47.660Z,100525.47
2022-10-12T15:04:18.060Z,100491.47
2022-10-12T15:06:50.551Z,100482.88
2022-10-12T15:09:17.921Z,100523.19
2022-10-12T15:11:44.782Z,100479.53
2022-10-12T15:14:12.174Z,100525.94
2022-10-12T15:16:39.160Z,100494.56
2022-10-12T15:19:05.881Z,100513.06
2022-10-12T15:21:32.713Z,100511.66
2022-10-12T15:23:59.788Z,100535.19
2022-10-12T15:26:26.960Z,100528.88
2022-10-12T15:28:53.664Z,100483.63
2022-10-12T15:31:20.552Z,100519.22
2022-10-12T15:33:47.252Z,100506.75
2022-10-12T15:36:14.020Z,100505.63
2022-10-12T15:38:40.709Z,100516.53
2022-10-12T15:41:17.248Z,100519.19
2022-10-12T15:43:53.087Z,100551.19
2022-10-12T15:46:19.896Z,100538.69
2022-10-12T15:48:46.569Z,100511.00
2022-10-12T15:51:23.681Z,100560.69
2022-10-12T15:53:54.971Z,100531.47
2022-10-12T15:56:22.584Z,100556.69
2022-10-12T15:58:52.489Z,100544.41
2022-10-12T16:01:20.781Z,100563.91
2022-10-12T16:03:48.637Z,100562.56
2022-10-12T16:06:16.046Z,100536.97
2022-10-12T16:08:43.062Z,100516.88
2022-10-12T16:11:13.163Z,100574.53
2022-10-12T16:13:46.819Z,100523.75
2022-10-12T16:16:17.701Z,100570.81
2022-10-12T16:18:44.941Z,100581.50
2022-10-12T16:21:12.301Z,100589.84
2022-10-12T16:23:40.325Z,100598.13
2022-10-12T16:26:11.522Z,100564.03
2022-10-12T16:28:41.626Z,100584.56
2022-10-12T16:31:11.019Z,100606.47
2022-10-12T16:33:38.117Z,100592.53
2022-10-12T16:36:10.816Z,100579.50
2022-10-12T16:38:37.645Z,100586.47
2022-10-12T16:41:16.136Z,100620.66
2022-10-12T16:43:43.831Z,100618.00
2022-10-12T16:46:10.880Z,100603.84
2022-10-12T16:48:38.022Z,100634.31
2022-10-12T16:51:09.170Z,100611.03
2022-10-12T16:53:36.069Z,100629.63
2022-10-12T16:56:05.852Z,100626.47
2022-10-12T16:58:33.235Z,100586.59
2022-10-12T17:01:08.971Z,100635.22
2022-10-12T17:03:37.640Z,100635.97
2022-10-12T17:06:04.894Z,100616.47
2022-10-12T17:08:41.108Z,100600.28
2022-10-12T17:11:10.628Z,100608.81
2022-10-12T17:13:38.667Z,100603.94
2022-10-12T17:16:25.643Z,100624.34
2022-10-12T17:18:59.176Z,100657.84
2022-10-12T17:21:27.005Z,100617.94
2022-10-12T17:23:57.409Z,100652.47
2022-10-12T17:26:24.291Z,100638.00
2022-10-12T17:28:51.109Z,100631.75
2022-10-12T17:31:18.196Z,100642.75
2022-10-12T17:33:44.854Z,100632.53
2022-10-12T17:36:13.380Z,100662.38
2022-10-12T17:38:40.506Z,100635.75
2022-10-12T17:41:07.194Z,100634.34
2022-10-12T17:43:33.980Z,100637.13
2022-10-12T17:46:02.062Z,100649.19
2022-10-12T17:53:57.264Z,100665.88
2022-10-12T17:56:24.931Z,100666.38
2022-10-12T17:59:00.350Z,100675.66
2022-10-12T18:01:28.795Z,100666.81
2022-10-12T18:03:55.788Z,100671.56
2022-10-12T18:06:26.519Z,100691.75
2022-10-12T18:08:53.427Z,100685.53
2022-10-12T18:11:22.696Z,100695.03
2022-10-12T18:13:54.330Z,100718.63
2022-10-12T18:16:27.067Z,100717.63
2022-10-12T18:18:54.973Z,100706.00
2022-10-12T18:21:24.529Z,100693.75
2022-10-12T18:23:51.837Z,100656.50
2022-10-12T18:26:22.620Z,100723.28
2022-10-12T18:28:51.479Z,100690.44
2022-10-12T18:31:23.175Z,100718.72
2022-10-12T18:33:50.476Z,100729.66
2022-10-12T18:36:18.343Z,100732.75
2022-10-12T18:38:45.304Z,100744.56
2022-10-12T18:41:23.330Z,100742.38
2022-10-12T18:43:55.437Z,100749.09
2022-10-12T18:46:22.638Z,100691.38
2022-10-12T18:48:49.636Z,100759.91
2022-10-12T18:51:20.204Z,100719.78
2022-10-12T18:53:48.262Z,100721.41
2022-10-12T18:56:15.215Z,100706.84
2022-10-12T18:58:42.414Z,100733.44
2022-10-12T19:01:18.485Z,100778.38
2022-10-12T19:03:45.888Z,100738.88
2022-10-12T19:06:18.977Z,100779.50
2022-10-12T19:08:46.591Z,100763.91
2022-10-12T19:11:14.263Z,100732.69
2022-10-12T19:13:41.922Z,100726.91
2022-10-12T19:16:12.619Z,100781.16
2022-10-12T19:18:40.149Z,100789.88
2022-10-12T19:21:09.088Z,100749.50
2022-10-12T19:23:36.037Z,100759.94
2022-10-12T19:26:08.933Z,100775.78
2022-10-12T19:28:36.364Z,100791.50
2022-10-12T19:31:09.344Z,100729.72
2022-10-12T19:33:36.112Z,100736.47
2022-10-12T19:36:05.211Z,100796.22
2022-10-12T19:38:32.002Z,100802.53
2022-10-12T19:40:58.723Z,100756.69
2022-10-12T19:43:25.487Z,100788.63
2022-10-12T19:45:52.177Z,100768.28
2022-10-12T19:48:19.247Z,100811.41
2022-10-12T19:50:46.000Z,100822.09
2022-10-12T19:53:12.741Z,100767.28
2022-10-12T19:55:39.503Z,100791.59
2022-10-12T19:58:07.518Z,100828.19
2022-10-12T20:00:37.439Z,100790.78
2022-10-12T20:03:04.861Z,100832.69
2022-10-12T20:05:31.588Z,100792.03
2022-10-12T20:08:00.703Z,100811.22
2022-10-12T20:10:27.450Z,100798.41
2022-10-12T20:12:54.207Z,100789.97
2022-10-12T20:15:20.907Z,100809.69
2022-10-12T20:17:47.625Z,100821.06
2022-10-12T20:20:14.584Z,100824.00
2022-10-12T20:22:41.276Z,100800.41
2022-10-12T20:25:09.846Z,100829.41
2022-10-12T20:27:37.234Z,100829.63
2022-10-12T20:30:05.988Z,100855.34
2022-10-12T20:32:34.809Z,100838.78
2022-10-12T20:35:02.240Z,100825.03
2022-10-12T20:37:28.971Z,100823.44
2022-10-12T20:39:55.654Z,100833.81
2022-10-12T20:42:22.453Z,100857.19
2022-10-12T20:44:49.620Z,100832.22
2022-10-12T20:47:16.654Z,100852.84
2022-10-12T20:49:44.142Z,100861.41
2022-10-12T20:52:11.309Z,100854.16
2022-10-12T20:54:38.420Z,100863.56
2022-10-12T20:57:05.811Z,100839.38
2022-10-12T20:59:34.747Z,100874.41
2022-10-12T21:02:01.409Z,100870.63
2022-10-12T21:04:31.074Z,100835.63
2022-10-12T21:06:59.396Z,100803.81
2022-10-12T21:09:26.250Z,100841.78
2022-10-12T21:11:54.105Z,100860.78
2022-10-12T21:14:20.957Z,100833.78
2022-10-12T21:16:48.410Z,100863.94
2022-10-12T21:19:16.566Z,100857.47
2022-10-12T21:21:44.059Z,100846.94
2022-10-12T21:24:11.133Z,100884.75
2022-10-12T21:26:37.914Z,100867.00
2022-10-12T21:29:05.393Z,100876.91
2022-10-12T21:31:33.098Z,100885.72
2022-10-12T21:34:01.800Z,100873.13
2022-10-12T21:36:29.309Z,100887.84
2022-10-12T21:38:56.436Z,100891.25
2022-10-12T21:41:26.398Z,100880.25
2022-10-12T21:43:53.691Z,100886.50
2022-10-12T21:46:26.672Z,100884.66
2022-10-12T21:48:53.925Z,100891.53
2022-10-12T21:51:22.228Z,100902.66
2022-10-12T21:53:49.667Z,100887.53
2022-10-12T21:56:26.236Z,100904.31
2022-10-12T21:58:54.062Z,100901.56
2022-10-12T22:01:22.950Z,100909.94
2022-10-12T22:04:00.545Z,100908.41
2022-10-12T22:06:28.844Z,100916.44
2022-10-12T22:09:01.781Z,100899.63
2022-10-12T22:11:30.266Z,100914.28
2022-10-12T22:13:59.402Z,100886.28
2022-10-12T22:16:26.582Z,100886.09
2022-10-12T22:18:53.241Z,100888.25
2022-10-12T22:21:19.952Z,100904.88
2022-10-12T22:23:46.788Z,100914.44
2022-10-12T22:26:19.398Z,100929.16
2022-10-12T22:28:46.742Z,100921.63
2022-10-12T22:31:15.832Z,100924.69
2022-10-12T22:33:42.558Z,100925.13
2022-10-12T22:36:11.424Z,100914.59
2022-10-12T22:38:38.157Z,100914.50
2022-10-12T22:41:11.905Z,100888.91
2022-10-12T22:43:38.945Z,100889.44
2022-10-12T22:46:06.081Z,100859.31
2022-10-12T22:48:34.071Z,100873.31
2022-10-12T22:51:00.883Z,100916.22
2022-10-12T22:53:28.999Z,100925.44
2022-10-12T22:56:00.877Z,100933.97
2022-10-12T22:58:28.614Z,100923.75
2022-10-12T23:01:03.941Z,100940.59
2022-10-12T23:03:33.888Z,100937.09
2022-10-12T23:06:00.595Z,100925.16
2022-10-12T23:08:28.052Z,100923.31
2022-10-12T23:10:55.434Z,100926.03
2022-10-12T23:13:22.119Z,100890.09
2022-10-12T23:15:48.801Z,100916.78
2022-10-12T23:18:15.906Z,100931.31
2022-10-12T23:20:42.593Z,100927.25
2022-10-12T23:23:09.371Z,100929.91
2022-10-12T23:25:36.043Z,100948.53
2022-10-12T23:28:02.761Z,100901.63
2022-10-12T23:30:29.626Z,100933.09
2022-10-12T23:32:56.270Z,100936.00
2022-10-12T23:35:22.959Z,100937.09
2022-10-12T23:37:49.555Z,100929.31
2022-10-12T23:40:16.409Z,100934.72
2022-10-12T23:42:43.114Z,100893.75
2022-10-12T23:45:09.874Z,100921.97
2022-10-12T23:47:36.611Z,100918.50
2022-10-12T23:50:03.662Z,100941.28
2022-10-12T23:52:30.342Z,100938.75
2022-10-12T23:54:57.035Z,100934.47
2022-10-12T23:57:45.667Z,100932.53
